John Wayne Airport-Orange County Airport
KSNA : now visible

Airfield :











YOU CAN JOIN US ON...

 
LOGIN :

Register | Disclaimer

   EN    FR    IT 

 









Legend :    VFR   Marginal VFR   IFR   Intensive IFR   Very Intensive IFR
Visi :
Ceiling :
>= 8 km
>= 3000ft
5 to 8 km
1000 to 3000 ft
1500m to 5 km
500 to 1000 ft
800 to 1500m
200 to 500 ft
< 800m
< 200 ft
Symbols :   Thunderstorms  Fog  Heavy snow  Heavy precipitations  Wind > 20 kt






- Airport Elevation : 56 ft
- IATA code : SNA


KSNA - John Wayne -Orange County

CURRENT METAR :
  • 080716Z AUTO 19005KT 10SM SCT011 OVC021 17/14 A3010 RMK AO2 T01720139

EXPIRED METARs :
  • 080706Z AUTO 19003KT 10SM BKN011 OVC019 17/14 A3010 RMK AO2 T01720139
  • 080653Z 19005KT 9SM SCT011 BKN019 17/14 A3010 RMK AO2 SLP192 LAST T01720139
  • 080553Z 20004KT 9SM BKN023 17/13 A3010 RMK AO2 SLP191 T01720133 10178 20172 51008
  • 080453Z 19004KT 10SM BKN021 BKN026 17/13 A3009 RMK AO2 SLP190 T01720133

TAF KSNA
Valid from the 08 at 06:00 until the 09 at 06:00 UTC


080521Z 0806/0906 VRB04KT P6SM VCSH BKN013 OVC030
FM081200 VRB04KT 6SM -RA BKN010 BKN025
FM081800 VRB04KT P6SM VCSH BKN025 BKN035
FM082200 23008KT P6SM VCSH BKN035 BKN050
FM090200 VRB04KT P6SM SCT035 SCT050



MET'MAP, your aeronautical weather chart ! - Copyright ORBIFLY December 2007 - Disclaimer

ORBIFLY MET'MAP TEAM :

Programming & Development : Alexandra Zaïnal
Concept & original design : Baudouin d'Aumeries
Assistance for programming : Marc-Olivier Méhu
Technical & hardware support : Manuel Goepfert

Contact : metmap@orbifly.com




SOURCES & CREDITS :

   NOAA       Earth
Advisory